sensor_id;sensor_type;location;lat;lon;timestamp;temperature;humidity
14529;DHT22;7351;51.194;4.098;2023-03-14T00:00:07;17.80;99.90
14529;DHT22;7351;51.194;4.098;2023-03-14T00:02:35;17.80;99.90
14529;DHT22;7351;51.194;4.098;2023-03-14T00:05:02;17.80;99.90
14529;DHT22;7351;51.194;4.098;2023-03-14T00:07:33;17.80;99.90
14529;DHT22;7351;51.194;4.098;2023-03-14T00:10:01;17.80;99.90
14529;DHT22;7351;51.194;4.098;2023-03-14T00:12:30;17.80;99.90
14529;DHT22;7351;51.194;4.098;2023-03-14T00:14:57;17.70;99.90
14529;DHT22;7351;51.194;4.098;2023-03-14T00:17:27;17.70;99.90
14529;DHT22;7351;51.194;4.098;2023-03-14T00:19:53;17.70;99.90
14529;DHT22;7351;51.194;4.098;2023-03-14T00:22:21;17.70;99.90
14529;DHT22;7351;51.194;4.098;2023-03-14T00:24:48;17.70;99.90
14529;DHT22;7351;51.194;4.098;2023-03-14T00:27:15;17.70;99.90
14529;DHT22;7351;51.194;4.098;2023-03-14T00:29:42;17.70;99.90
14529;DHT22;7351;51.194;4.098;2023-03-14T00:32:10;17.70;99.90
14529;DHT22;7351;51.194;4.098;2023-03-14T00:34:38;17.70;99.90
14529;DHT22;7351;51.194;4.098;2023-03-14T00:37:05;17.70;99.90
14529;DHT22;7351;51.194;4.098;2023-03-14T00:39:32;17.70;99.90
14529;DHT22;7351;51.194;4.098;2023-03-14T00:41:59;17.70;99.90
14529;DHT22;7351;51.194;4.098;2023-03-14T00:44:26;17.70;99.90
14529;DHT22;7351;51.194;4.098;2023-03-14T00:46:53;17.70;99.90
14529;DHT22;7351;51.194;4.098;2023-03-14T00:49:20;17.60;99.90
14529;DHT22;7351;51.194;4.098;2023-03-14T00:51:49;17.70;99.90
14529;DHT22;7351;51.194;4.098;2023-03-14T00:54:17;17.60;99.90
14529;DHT22;7351;51.194;4.098;2023-03-14T00:56:44;17.60;99.90
14529;DHT22;7351;51.194;4.098;2023-03-14T00:59:11;17.70;99.90
14529;DHT22;7351;51.194;4.098;2023-03-14T01:01:38;17.60;99.90
14529;DHT22;7351;51.194;4.098;2023-03-14T01:04:06;17.60;99.90
14529;DHT22;7351;51.194;4.098;2023-03-14T01:06:33;17.60;99.90
14529;DHT22;7351;51.194;4.098;2023-03-14T01:09:02;17.60;99.90
14529;DHT22;7351;51.194;4.098;2023-03-14T01:11:30;17.60;99.90
14529;DHT22;7351;51.194;4.098;2023-03-14T01:13:58;17.60;99.90
14529;DHT22;7351;51.194;4.098;2023-03-14T01:16:27;17.60;99.90
14529;DHT22;7351;51.194;4.098;2023-03-14T01:18:54;17.60;99.90
14529;DHT22;7351;51.194;4.098;2023-03-14T01:21:23;17.60;99.90
14529;DHT22;7351;51.194;4.098;2023-03-14T01:23:51;17.60;99.90
14529;DHT22;7351;51.194;4.098;2023-03-14T01:26:22;17.60;99.90
14529;DHT22;7351;51.194;4.098;2023-03-14T01:28:52;17.60;99.90
14529;DHT22;7351;51.194;4.098;2023-03-14T01:31:19;17.60;99.90
14529;DHT22;7351;51.194;4.098;2023-03-14T01:33:46;17.60;99.90
14529;DHT22;7351;51.194;4.098;2023-03-14T01:36:13;17.60;99.90
14529;DHT22;7351;51.194;4.098;2023-03-14T01:38:41;17.60;99.90
14529;DHT22;7351;51.194;4.098;2023-03-14T01:41:13;17.50;99.90
14529;DHT22;7351;51.194;4.098;2023-03-14T01:43:42;17.60;99.90
14529;DHT22;7351;51.194;4.098;2023-03-14T01:46:25;17.60;99.90
14529;DHT22;7351;51.194;4.098;2023-03-14T01:48:59;17.60;99.90
14529;DHT22;7351;51.194;4.098;2023-03-14T01:51:32;17.60;99.90
14529;DHT22;7351;51.194;4.098;2023-03-14T01:54:05;17.50;99.90
14529;DHT22;7351;51.194;4.098;2023-03-14T01:56:33;17.50;99.90
14529;DHT22;7351;51.194;4.098;2023-03-14T01:59:04;17.50;99.90
14529;DHT22;7351;51.194;4.098;2023-03-14T02:01:32;17.50;99.90
14529;DHT22;7351;51.194;4.098;2023-03-14T02:04:02;17.50;99.90
14529;DHT22;7351;51.194;4.098;2023-03-14T02:06:34;17.50;99.90
14529;DHT22;7351;51.194;4.098;2023-03-14T02:09:02;17.50;99.90
14529;DHT22;7351;51.194;4.098;2023-03-14T02:11:30;17.50;99.90
14529;DHT22;7351;51.194;4.098;2023-03-14T02:13:57;17.50;99.90
14529;DHT22;7351;51.194;4.098;2023-03-14T02:16:26;17.50;99.90
14529;DHT22;7351;51.194;4.098;2023-03-14T02:18:53;17.50;99.90
14529;DHT22;7351;51.194;4.098;2023-03-14T02:21:24;17.50;99.90
14529;DHT22;7351;51.194;4.098;2023-03-14T02:24:00;17.50;99.90
14529;DHT22;7351;51.194;4.098;2023-03-14T02:26:35;17.50;99.90
14529;DHT22;7351;51.194;4.098;2023-03-14T02:29:05;17.50;99.90
14529;DHT22;7351;51.194;4.098;2023-03-14T02:31:32;17.50;99.90
14529;DHT22;7351;51.194;4.098;2023-03-14T02:34:00;17.50;99.90
14529;DHT22;7351;51.194;4.098;2023-03-14T02:36:29;17.40;99.90
14529;DHT22;7351;51.194;4.098;2023-03-14T02:39:03;17.40;99.90
14529;DHT22;7351;51.194;4.098;2023-03-14T02:41:32;17.40;99.90
14529;DHT22;7351;51.194;4.098;2023-03-14T02:43:59;17.40;99.90
14529;DHT22;7351;51.194;4.098;2023-03-14T02:46:28;17.40;99.90
14529;DHT22;7351;51.194;4.098;2023-03-14T02:48:57;17.40;99.90
14529;DHT22;7351;51.194;4.098;2023-03-14T02:51:27;17.40;99.90
14529;DHT22;7351;51.194;4.098;2023-03-14T02:53:55;17.40;99.90
14529;DHT22;7351;51.194;4.098;2023-03-14T02:56:22;17.40;99.90
14529;DHT22;7351;51.194;4.098;2023-03-14T02:58:49;17.40;99.90
14529;DHT22;7351;51.194;4.098;2023-03-14T03:01:16;17.40;99.90
14529;DHT22;7351;51.194;4.098;2023-03-14T03:03:44;17.40;99.90
14529;DHT22;7351;51.194;4.098;2023-03-14T03:06:11;17.40;99.90
14529;DHT22;7351;51.194;4.098;2023-03-14T03:08:38;17.40;99.90
14529;DHT22;7351;51.194;4.098;2023-03-14T03:11:06;17.40;99.90
14529;DHT22;7351;51.194;4.098;2023-03-14T03:13:33;17.40;99.90
14529;DHT22;7351;51.194;4.098;2023-03-14T03:16:00;17.40;99.90
14529;DHT22;7351;51.194;4.098;2023-03-14T03:18:27;17.40;99.90
14529;DHT22;7351;51.194;4.098;2023-03-14T03:20:59;17.40;99.90
14529;DHT22;7351;51.194;4.098;2023-03-14T03:23:26;17.40;99.90
14529;DHT22;7351;51.194;4.098;2023-03-14T03:25:53;17.30;99.90
14529;DHT22;7351;51.194;4.098;2023-03-14T03:28:20;17.30;99.90
14529;DHT22;7351;51.194;4.098;2023-03-14T03:30:47;17.40;99.90
14529;DHT22;7351;51.194;4.098;2023-03-14T03:33:14;17.40;99.90
14529;DHT22;7351;51.194;4.098;2023-03-14T03:35:45;17.30;99.90
14529;DHT22;7351;51.194;4.098;2023-03-14T03:38:14;17.40;99.90
14529;DHT22;7351;51.194;4.098;2023-03-14T03:40:41;17.30;99.90
14529;DHT22;7351;51.194;4.098;2023-03-14T03:43:08;17.40;99.90
14529;DHT22;7351;51.194;4.098;2023-03-14T03:45:35;17.30;99.90
14529;DHT22;7351;51.194;4.098;2023-03-14T03:48:02;17.40;99.90
14529;DHT22;7351;51.194;4.098;2023-03-14T03:50:29;17.30;99.90
14529;DHT22;7351;51.194;4.098;2023-03-14T03:52:56;17.30;99.90
14529;DHT22;7351;51.194;4.098;2023-03-14T03:55:24;17.30;99.90
14529;DHT22;7351;51.194;4.098;2023-03-14T03:57:53;17.30;99.90
14529;DHT22;7351;51.194;4.098;2023-03-14T04:00:20;17.30;99.90
14529;DHT22;7351;51.194;4.098;2023-03-14T04:02:47;17.30;99.90
14529;DHT22;7351;51.194;4.098;2023-03-14T04:05:14;17.30;99.90
14529;DHT22;7351;51.194;4.098;2023-03-14T04:07:41;17.30;99.90
14529;DHT22;7351;51.194;4.098;2023-03-14T04:10:09;17.30;99.90
14529;DHT22;7351;51.194;4.098;2023-03-14T04:12:37;17.30;99.90
14529;DHT22;7351;51.194;4.098;2023-03-14T04:15:05;17.30;99.90
14529;DHT22;7351;51.194;4.098;2023-03-14T04:17:33;17.30;99.90
14529;DHT22;7351;51.194;4.098;2023-03-14T04:20:00;17.30;99.90
14529;DHT22;7351;51.194;4.098;2023-03-14T04:22:27;17.30;99.90
14529;DHT22;7351;51.194;4.098;2023-03-14T04:24:54;17.30;99.90
14529;DHT22;7351;51.194;4.098;2023-03-14T04:27:21;17.30;99.90
14529;DHT22;7351;51.194;4.098;2023-03-14T04:29:49;17.20;99.90
14529;DHT22;7351;51.194;4.098;2023-03-14T04:32:16;17.30;99.90
14529;DHT22;7351;51.194;4.098;2023-03-14T04:34:43;17.30;99.90
14529;DHT22;7351;51.194;4.098;2023-03-14T04:37:10;17.30;99.90
14529;DHT22;7351;51.194;4.098;2023-03-14T04:39:37;17.20;99.90
14529;DHT22;7351;51.194;4.098;2023-03-14T04:42:04;17.30;99.90
14529;DHT22;7351;51.194;4.098;2023-03-14T04:44:31;17.20;99.90
14529;DHT22;7351;51.194;4.098;2023-03-14T04:46:59;17.20;99.90
14529;DHT22;7351;51.194;4.098;2023-03-14T04:49:26;17.20;99.90
14529;DHT22;7351;51.194;4.098;2023-03-14T04:51:53;17.30;99.90
14529;DHT22;7351;51.194;4.098;2023-03-14T04:54:20;17.20;99.90
14529;DHT22;7351;51.194;4.098;2023-03-14T04:56:47;17.30;99.90
14529;DHT22;7351;51.194;4.098;2023-03-14T04:59:14;17.30;99.90
14529;DHT22;7351;51.194;4.098;2023-03-14T05:01:41;17.20;99.90
14529;DHT22;7351;51.194;4.098;2023-03-14T05:04:09;17.20;99.90
14529;DHT22;7351;51.194;4.098;2023-03-14T05:06:36;17.20;99.90
14529;DHT22;7351;51.194;4.098;2023-03-14T05:09:05;17.30;99.90
14529;DHT22;7351;51.194;4.098;2023-03-14T05:11:32;17.20;99.90
14529;DHT22;7351;51.194;4.098;2023-03-14T05:13:59;17.30;99.90
14529;DHT22;7351;51.194;4.098;2023-03-14T05:16:26;17.30;99.90
14529;DHT22;7351;51.194;4.098;2023-03-14T05:18:53;17.20;99.90
14529;DHT22;7351;51.194;4.098;2023-03-14T05:21:21;17.30;99.90
14529;DHT22;7351;51.194;4.098;2023-03-14T05:23:48;17.20;99.90
14529;DHT22;7351;51.194;4.098;2023-03-14T05:26:15;17.20;99.90
14529;DHT22;7351;51.194;4.098;2023-03-14T05:28:43;17.20;99.90
14529;DHT22;7351;51.194;4.098;2023-03-14T05:31:10;17.20;99.90
14529;DHT22;7351;51.194;4.098;2023-03-14T05:33:37;17.20;99.90
14529;DHT22;7351;51.194;4.098;2023-03-14T05:36:04;17.20;99.90
14529;DHT22;7351;51.194;4.098;2023-03-14T05:38:33;17.20;99.90
14529;DHT22;7351;51.194;4.098;2023-03-14T05:41:00;17.20;99.90
14529;DHT22;7351;51.194;4.098;2023-03-14T05:43:27;17.20;99.90
14529;DHT22;7351;51.194;4.098;2023-03-14T05:45:54;17.20;99.90
14529;DHT22;7351;51.194;4.098;2023-03-14T05:48:21;17.20;99.90
14529;DHT22;7351;51.194;4.098;2023-03-14T05:50:48;17.20;99.90
14529;DHT22;7351;51.194;4.098;2023-03-14T05:53:15;17.20;99.90
14529;DHT22;7351;51.194;4.098;2023-03-14T05:55:43;17.20;99.90
14529;DHT22;7351;51.194;4.098;2023-03-14T05:58:10;17.20;99.90
14529;DHT22;7351;51.194;4.098;2023-03-14T06:00:37;17.20;99.90
14529;DHT22;7351;51.194;4.098;2023-03-14T06:03:04;17.30;99.90
14529;DHT22;7351;51.194;4.098;2023-03-14T06:05:31;17.40;99.90
14529;DHT22;7351;51.194;4.098;2023-03-14T06:07:58;17.40;99.90
14529;DHT22;7351;51.194;4.098;2023-03-14T06:10:25;17.50;99.90
14529;DHT22;7351;51.194;4.098;2023-03-14T06:12:53;17.60;99.90
14529;DHT22;7351;51.194;4.098;2023-03-14T06:15:20;17.70;99.90
14529;DHT22;7351;51.194;4.098;2023-03-14T06:17:47;17.70;99.90
14529;DHT22;7351;51.194;4.098;2023-03-14T06:20:14;17.80;99.90
14529;DHT22;7351;51.194;4.098;2023-03-14T06:22:41;17.90;99.90
14529;DHT22;7351;51.194;4.098;2023-03-14T06:25:09;17.90;99.90
14529;DHT22;7351;51.194;4.098;2023-03-14T06:27:35;18.00;99.90
14529;DHT22;7351;51.194;4.098;2023-03-14T06:30:05;18.00;99.90
14529;DHT22;7351;51.194;4.098;2023-03-14T06:32:32;18.10;99.90
14529;DHT22;7351;51.194;4.098;2023-03-14T06:34:59;18.10;99.90
14529;DHT22;7351;51.194;4.098;2023-03-14T06:37:26;18.20;99.90
14529;DHT22;7351;51.194;4.098;2023-03-14T06:39:54;18.30;99.90
14529;DHT22;7351;51.194;4.098;2023-03-14T06:42:22;18.30;99.90
14529;DHT22;7351;51.194;4.098;2023-03-14T06:44:49;18.30;99.90
14529;DHT22;7351;51.194;4.098;2023-03-14T06:47:17;18.40;99.90
14529;DHT22;7351;51.194;4.098;2023-03-14T06:49:44;18.50;99.90
14529;DHT22;7351;51.194;4.098;2023-03-14T06:52:11;18.50;99.90
14529;DHT22;7351;51.194;4.098;2023-03-14T06:54:38;18.50;99.90
14529;DHT22;7351;51.194;4.098;2023-03-14T06:57:05;18.50;99.90
14529;DHT22;7351;51.194;4.098;2023-03-14T06:59:32;18.60;99.90
14529;DHT22;7351;51.194;4.098;2023-03-14T07:01:59;18.60;99.90
14529;DHT22;7351;51.194;4.098;2023-03-14T07:04:27;18.70;99.90
14529;DHT22;7351;51.194;4.098;2023-03-14T07:06:54;18.70;99.90
14529;DHT22;7351;51.194;4.098;2023-03-14T07:09:21;18.80;99.90
14529;DHT22;7351;51.194;4.098;2023-03-14T07:11:48;18.80;99.90
14529;DHT22;7351;51.194;4.098;2023-03-14T07:14:15;18.80;99.90
14529;DHT22;7351;51.194;4.098;2023-03-14T07:16:42;18.80;99.90
14529;DHT22;7351;51.194;4.098;2023-03-14T07:19:10;18.80;99.90
14529;DHT22;7351;51.194;4.098;2023-03-14T07:21:39;18.80;99.90
14529;DHT22;7351;51.194;4.098;2023-03-14T07:24:06;18.70;99.90
14529;DHT22;7351;51.194;4.098;2023-03-14T07:26:33;18.70;99.90
14529;DHT22;7351;51.194;4.098;2023-03-14T07:29:00;18.60;99.90
14529;DHT22;7351;51.194;4.098;2023-03-14T07:31:28;18.50;99.90
14529;DHT22;7351;51.194;4.098;2023-03-14T07:33:56;18.50;99.90
14529;DHT22;7351;51.194;4.098;2023-03-14T07:36:23;18.40;99.90
14529;DHT22;7351;51.194;4.098;2023-03-14T07:38:51;18.40;99.90
14529;DHT22;7351;51.194;4.098;2023-03-14T07:41:18;18.30;99.90
14529;DHT22;7351;51.194;4.098;2023-03-14T07:43:46;18.30;99.90
14529;DHT22;7351;51.194;4.098;2023-03-14T07:46:13;18.20;99.90
14529;DHT22;7351;51.194;4.098;2023-03-14T07:48:40;18.20;99.90
14529;DHT22;7351;51.194;4.098;2023-03-14T07:51:07;18.20;99.90
14529;DHT22;7351;51.194;4.098;2023-03-14T07:53:34;18.10;99.90
14529;DHT22;7351;51.194;4.098;2023-03-14T07:56:03;18.10;99.90
14529;DHT22;7351;51.194;4.098;2023-03-14T07:58:30;18.10;99.90
14529;DHT22;7351;51.194;4.098;2023-03-14T08:00:58;18.10;99.90
14529;DHT22;7351;51.194;4.098;2023-03-14T08:03:25;18.10;99.90
14529;DHT22;7351;51.194;4.098;2023-03-14T08:05:53;18.00;99.90
14529;DHT22;7351;51.194;4.098;2023-03-14T08:08:20;18.00;99.90
14529;DHT22;7351;51.194;4.098;2023-03-14T08:10:47;17.90;99.90
14529;DHT22;7351;51.194;4.098;2023-03-14T08:13:15;17.90;99.90
14529;DHT22;7351;51.194;4.098;2023-03-14T08:15:42;17.90;99.90
14529;DHT22;7351;51.194;4.098;2023-03-14T08:18:13;17.90;99.90
14529;DHT22;7351;51.194;4.098;2023-03-14T08:20:40;17.90;99.90
14529;DHT22;7351;51.194;4.098;2023-03-14T08:23:07;17.90;99.90
14529;DHT22;7351;51.194;4.098;2023-03-14T08:25:34;17.80;99.90
14529;DHT22;7351;51.194;4.098;2023-03-14T08:28:01;17.80;99.90
14529;DHT22;7351;51.194;4.098;2023-03-14T08:30:29;17.80;99.90
14529;DHT22;7351;51.194;4.098;2023-03-14T08:32:56;17.80;99.90
14529;DHT22;7351;51.194;4.098;2023-03-14T08:35:24;17.80;99.90
14529;DHT22;7351;51.194;4.098;2023-03-14T08:37:51;17.70;99.90
14529;DHT22;7351;51.194;4.098;2023-03-14T08:40:19;17.70;99.90
14529;DHT22;7351;51.194;4.098;2023-03-14T08:42:46;17.70;99.90
14529;DHT22;7351;51.194;4.098;2023-03-14T08:45:14;17.70;99.90
14529;DHT22;7351;51.194;4.098;2023-03-14T08:47:43;17.70;99.90
14529;DHT22;7351;51.194;4.098;2023-03-14T08:50:11;17.70;99.90
14529;DHT22;7351;51.194;4.098;2023-03-14T08:52:39;17.70;99.90
14529;DHT22;7351;51.194;4.098;2023-03-14T08:55:07;17.70;99.90
14529;DHT22;7351;51.194;4.098;2023-03-14T08:57:34;17.70;99.90
14529;DHT22;7351;51.194;4.098;2023-03-14T09:00:03;17.70;99.90
14529;DHT22;7351;51.194;4.098;2023-03-14T09:02:36;17.70;99.90
14529;DHT22;7351;51.194;4.098;2023-03-14T09:05:05;17.70;99.90
14529;DHT22;7351;51.194;4.098;2023-03-14T09:07:32;17.70;99.90
14529;DHT22;7351;51.194;4.098;2023-03-14T09:09:59;17.60;99.90
14529;DHT22;7351;51.194;4.098;2023-03-14T09:12:26;17.60;99.90
14529;DHT22;7351;51.194;4.098;2023-03-14T09:14:53;17.60;99.90
14529;DHT22;7351;51.194;4.098;2023-03-14T09:17:20;17.60;99.90
14529;DHT22;7351;51.194;4.098;2023-03-14T09:19:47;17.60;99.90
14529;DHT22;7351;51.194;4.098;2023-03-14T09:22:16;17.60;99.90
14529;DHT22;7351;51.194;4.098;2023-03-14T09:24:42;17.50;99.90
14529;DHT22;7351;51.194;4.098;2023-03-14T09:27:09;17.60;99.90
14529;DHT22;7351;51.194;4.098;2023-03-14T09:29:36;17.50;99.90
14529;DHT22;7351;51.194;4.098;2023-03-14T09:32:04;17.50;99.90
14529;DHT22;7351;51.194;4.098;2023-03-14T09:34:30;17.50;99.90
14529;DHT22;7351;51.194;4.098;2023-03-14T09:36:57;17.50;99.90
14529;DHT22;7351;51.194;4.098;2023-03-14T09:39:26;17.50;99.90
14529;DHT22;7351;51.194;4.098;2023-03-14T09:41:55;17.50;99.90
14529;DHT22;7351;51.194;4.098;2023-03-14T09:44:26;17.50;99.90
14529;DHT22;7351;51.194;4.098;2023-03-14T09:46:55;17.50;99.90
14529;DHT22;7351;51.194;4.098;2023-03-14T09:49:26;17.50;99.90
14529;DHT22;7351;51.194;4.098;2023-03-14T09:51:56;17.40;99.90
14529;DHT22;7351;51.194;4.098;2023-03-14T09:54:36;17.50;99.90
14529;DHT22;7351;51.194;4.098;2023-03-14T09:57:06;17.50;99.90
14529;DHT22;7351;51.194;4.098;2023-03-14T09:59:37;17.50;99.90
14529;DHT22;7351;51.194;4.098;2023-03-14T10:02:15;17.40;99.90
14529;DHT22;7351;51.194;4.098;2023-03-14T10:04:42;17.40;99.90
14529;DHT22;7351;51.194;4.098;2023-03-14T10:07:13;17.40;99.90
14529;DHT22;7351;51.194;4.098;2023-03-14T10:09:45;17.40;99.90
14529;DHT22;7351;51.194;4.098;2023-03-14T10:12:12;17.40;99.90
14529;DHT22;7351;51.194;4.098;2023-03-14T10:14:46;17.30;99.90
14529;DHT22;7351;51.194;4.098;2023-03-14T10:17:14;17.30;99.90
14529;DHT22;7351;51.194;4.098;2023-03-14T10:19:51;17.40;99.90
14529;DHT22;7351;51.194;4.098;2023-03-14T10:22:19;17.30;99.90
14529;DHT22;7351;51.194;4.098;2023-03-14T10:24:52;17.30;99.90
14529;DHT22;7351;51.194;4.098;2023-03-14T10:27:20;17.30;99.90
14529;DHT22;7351;51.194;4.098;2023-03-14T10:29:53;17.30;99.90
14529;DHT22;7351;51.194;4.098;2023-03-14T10:32:23;17.40;99.90
14529;DHT22;7351;51.194;4.098;2023-03-14T10:35:17;17.40;99.90
14529;DHT22;7351;51.194;4.098;2023-03-14T10:37:50;17.30;99.90
14529;DHT22;7351;51.194;4.098;2023-03-14T10:40:23;17.30;99.90
14529;DHT22;7351;51.194;4.098;2023-03-14T10:42:51;17.30;99.90
14529;DHT22;7351;51.194;4.098;2023-03-14T10:45:31;17.40;99.90
14529;DHT22;7351;51.194;4.098;2023-03-14T10:48:05;17.30;99.90
14529;DHT22;7351;51.194;4.098;2023-03-14T10:50:33;17.30;99.90
14529;DHT22;7351;51.194;4.098;2023-03-14T10:53:02;17.30;99.90
14529;DHT22;7351;51.194;4.098;2023-03-14T10:55:40;17.30;99.90
14529;DHT22;7351;51.194;4.098;2023-03-14T10:58:21;17.40;99.90
14529;DHT22;7351;51.194;4.098;2023-03-14T11:00:54;17.40;99.90
14529;DHT22;7351;51.194;4.098;2023-03-14T11:03:24;17.40;99.90
14529;DHT22;7351;51.194;4.098;2023-03-14T11:05:57;17.40;99.90
14529;DHT22;7351;51.194;4.098;2023-03-14T11:08:29;17.40;99.90
14529;DHT22;7351;51.194;4.098;2023-03-14T11:11:10;17.40;99.90
14529;DHT22;7351;51.194;4.098;2023-03-14T11:13:43;17.30;99.90
14529;DHT22;7351;51.194;4.098;2023-03-14T11:16:22;17.40;99.90
14529;DHT22;7351;51.194;4.098;2023-03-14T11:19:15;17.40;99.90
14529;DHT22;7351;51.194;4.098;2023-03-14T11:21:51;17.30;99.90
14529;DHT22;7351;51.194;4.098;2023-03-14T11:27:15;17.40;99.90
14529;DHT22;7351;51.194;4.098;2023-03-14T11:29:51;17.30;99.90
14529;DHT22;7351;51.194;4.098;2023-03-14T11:32:28;17.30;99.90
14529;DHT22;7351;51.194;4.098;2023-03-14T11:34:59;17.30;99.90
14529;DHT22;7351;51.194;4.098;2023-03-14T11:37:33;17.30;99.90
14529;DHT22;7351;51.194;4.098;2023-03-14T11:40:05;17.40;99.90
14529;DHT22;7351;51.194;4.098;2023-03-14T11:42:37;17.50;99.90
14529;DHT22;7351;51.194;4.098;2023-03-14T11:45:15;17.60;99.90
14529;DHT22;7351;51.194;4.098;2023-03-14T11:47:45;17.70;99.90
14529;DHT22;7351;51.194;4.098;2023-03-14T11:50:17;17.70;99.90
14529;DHT22;7351;51.194;4.098;2023-03-14T11:52:48;17.80;99.90
14529;DHT22;7351;51.194;4.098;2023-03-14T11:55:20;17.90;99.90
14529;DHT22;7351;51.194;4.098;2023-03-14T11:57:50;17.90;99.90
14529;DHT22;7351;51.194;4.098;2023-03-14T12:00:20;17.90;99.90
14529;DHT22;7351;51.194;4.098;2023-03-14T12:02:53;18.00;99.90
14529;DHT22;7351;51.194;4.098;2023-03-14T12:05:34;18.00;99.90
14529;DHT22;7351;51.194;4.098;2023-03-14T12:11:15;18.20;99.90
14529;DHT22;7351;51.194;4.098;2023-03-14T12:13:48;18.20;99.90
14529;DHT22;7351;51.194;4.098;2023-03-14T12:16:35;18.30;99.90
14529;DHT22;7351;51.194;4.098;2023-03-14T12:22:17;18.30;99.90
14529;DHT22;7351;51.194;4.098;2023-03-14T12:24:48;18.40;99.90
14529;DHT22;7351;51.194;4.098;2023-03-14T12:30:28;18.50;99.90
14529;DHT22;7351;51.194;4.098;2023-03-14T12:33:20;18.60;99.90
14529;DHT22;7351;51.194;4.098;2023-03-14T12:35:49;18.60;99.90
14529;DHT22;7351;51.194;4.098;2023-03-14T12:38:22;18.60;99.90
14529;DHT22;7351;51.194;4.098;2023-03-14T12:40:56;18.60;99.90
14529;DHT22;7351;51.194;4.098;2023-03-14T12:43:26;18.70;99.90
14529;DHT22;7351;51.194;4.098;2023-03-14T12:46:18;18.70;99.90
14529;DHT22;7351;51.194;4.098;2023-03-14T12:48:47;18.80;99.90
14529;DHT22;7351;51.194;4.098;2023-03-14T12:51:17;18.80;99.90
14529;DHT22;7351;51.194;4.098;2023-03-14T12:57:00;18.90;99.90
14529;DHT22;7351;51.194;4.098;2023-03-14T12:59:32;18.90;99.90
14529;DHT22;7351;51.194;4.098;2023-03-14T13:02:12;18.90;99.90
14529;DHT22;7351;51.194;4.098;2023-03-14T13:04:45;18.90;99.90
14529;DHT22;7351;51.194;4.098;2023-03-14T13:07:30;18.90;99.90
14529;DHT22;7351;51.194;4.098;2023-03-14T13:10:01;18.90;99.90
14529;DHT22;7351;51.194;4.098;2023-03-14T13:12:34;18.80;99.90
14529;DHT22;7351;51.194;4.098;2023-03-14T13:15:15;18.80;99.90
14529;DHT22;7351;51.194;4.098;2023-03-14T13:17:46;18.80;99.90
14529;DHT22;7351;51.194;4.098;2023-03-14T13:20:18;18.70;99.90
14529;DHT22;7351;51.194;4.098;2023-03-14T13:22:48;18.70;99.90
14529;DHT22;7351;51.194;4.098;2023-03-14T13:25:16;18.70;99.90
14529;DHT22;7351;51.194;4.098;2023-03-14T13:27:47;18.60;99.90
14529;DHT22;7351;51.194;4.098;2023-03-14T13:30:17;18.60;99.90
14529;DHT22;7351;51.194;4.098;2023-03-14T13:32:47;18.50;99.90
14529;DHT22;7351;51.194;4.098;2023-03-14T13:35:16;18.50;99.90
14529;DHT22;7351;51.194;4.098;2023-03-14T13:37:43;18.50;99.90
14529;DHT22;7351;51.194;4.098;2023-03-14T13:40:20;18.50;99.90
14529;DHT22;7351;51.194;4.098;2023-03-14T13:42:47;18.50;99.90
14529;DHT22;7351;51.194;4.098;2023-03-14T13:45:14;18.50;99.90
14529;DHT22;7351;51.194;4.098;2023-03-14T13:47:42;18.50;99.90
14529;DHT22;7351;51.194;4.098;2023-03-14T13:50:15;18.50;99.90
14529;DHT22;7351;51.194;4.098;2023-03-14T13:52:43;18.40;99.90
14529;DHT22;7351;51.194;4.098;2023-03-14T13:55:16;18.40;99.90
14529;DHT22;7351;51.194;4.098;2023-03-14T13:57:45;18.40;99.90
14529;DHT22;7351;51.194;4.098;2023-03-14T14:00:19;18.30;99.90
14529;DHT22;7351;51.194;4.098;2023-03-14T14:02:48;18.30;99.90
14529;DHT22;7351;51.194;4.098;2023-03-14T14:05:16;18.20;99.90
14529;DHT22;7351;51.194;4.098;2023-03-14T14:07:44;18.20;99.90
14529;DHT22;7351;51.194;4.098;2023-03-14T14:10:12;18.20;99.90
14529;DHT22;7351;51.194;4.098;2023-03-14T14:12:42;18.20;99.90
14529;DHT22;7351;51.194;4.098;2023-03-14T14:15:17;18.20;99.90
14529;DHT22;7351;51.194;4.098;2023-03-14T14:17:49;18.10;99.90
14529;DHT22;7351;51.194;4.098;2023-03-14T14:20:22;18.10;99.90
14529;DHT22;7351;51.194;4.098;2023-03-14T14:22:50;18.10;99.90
14529;DHT22;7351;51.194;4.098;2023-03-14T14:25:18;18.10;99.90
14529;DHT22;7351;51.194;4.098;2023-03-14T14:27:48;18.00;99.90
14529;DHT22;7351;51.194;4.098;2023-03-14T14:30:27;18.00;99.90
14529;DHT22;7351;51.194;4.098;2023-03-14T14:33:11;18.00;99.90
14529;DHT22;7351;51.194;4.098;2023-03-14T14:35:40;18.00;99.90
14529;DHT22;7351;51.194;4.098;2023-03-14T14:38:12;18.00;99.90
14529;DHT22;7351;51.194;4.098;2023-03-14T14:40:47;17.90;99.90
14529;DHT22;7351;51.194;4.098;2023-03-14T14:43:17;17.80;99.90
14529;DHT22;7351;51.194;4.098;2023-03-14T14:45:46;17.80;99.90
14529;DHT22;7351;51.194;4.098;2023-03-14T14:48:14;17.80;99.90
14529;DHT22;7351;51.194;4.098;2023-03-14T14:50:55;17.80;99.90
14529;DHT22;7351;51.194;4.098;2023-03-14T14:53:26;17.80;99.90
14529;DHT22;7351;51.194;4.098;2023-03-14T14:55:55;17.80;99.90
14529;DHT22;7351;51.194;4.098;2023-03-14T14:58:25;17.80;99.90
14529;DHT22;7351;51.194;4.098;2023-03-14T15:00:56;17.80;99.90
14529;DHT22;7351;51.194;4.098;2023-03-14T15:03:26;17.80;99.90
14529;DHT22;7351;51.194;4.098;2023-03-14T15:05:55;17.70;99.90
14529;DHT22;7351;51.194;4.098;2023-03-14T15:08:24;17.70;99.90
14529;DHT22;7351;51.194;4.098;2023-03-14T15:10:52;17.70;99.90
14529;DHT22;7351;51.194;4.098;2023-03-14T15:13:19;17.70;99.90
14529;DHT22;7351;51.194;4.098;2023-03-14T15:15:46;17.70;99.90
14529;DHT22;7351;51.194;4.098;2023-03-14T15:18:16;17.70;99.90
14529;DHT22;7351;51.194;4.098;2023-03-14T15:20:44;17.70;99.90
14529;DHT22;7351;51.194;4.098;2023-03-14T15:23:14;17.70;99.90
14529;DHT22;7351;51.194;4.098;2023-03-14T15:25:42;17.70;99.90
14529;DHT22;7351;51.194;4.098;2023-03-14T15:28:16;17.70;99.90
14529;DHT22;7351;51.194;4.098;2023-03-14T15:30:45;17.70;99.90
14529;DHT22;7351;51.194;4.098;2023-03-14T15:33:13;17.70;99.90
14529;DHT22;7351;51.194;4.098;2023-03-14T15:35:40;17.70;99.90
14529;DHT22;7351;51.194;4.098;2023-03-14T15:38:10;17.70;99.90
14529;DHT22;7351;51.194;4.098;2023-03-14T15:40:40;17.70;99.90
14529;DHT22;7351;51.194;4.098;2023-03-14T15:43:08;17.70;99.90
14529;DHT22;7351;51.194;4.098;2023-03-14T15:45:35;17.70;99.90
14529;DHT22;7351;51.194;4.098;2023-03-14T15:48:02;17.60;99.90
14529;DHT22;7351;51.194;4.098;2023-03-14T15:50:30;17.70;99.90
14529;DHT22;7351;51.194;4.098;2023-03-14T15:52:57;17.60;99.90
14529;DHT22;7351;51.194;4.098;2023-03-14T15:55:24;17.60;99.90
14529;DHT22;7351;51.194;4.098;2023-03-14T15:57:52;17.60;99.90
14529;DHT22;7351;51.194;4.098;2023-03-14T16:00:20;17.60;99.90
14529;DHT22;7351;51.194;4.098;2023-03-14T16:02:48;17.60;99.90
14529;DHT22;7351;51.194;4.098;2023-03-14T16:05:16;17.60;99.90
14529;DHT22;7351;51.194;4.098;2023-03-14T16:07:44;17.50;99.90
14529;DHT22;7351;51.194;4.098;2023-03-14T16:10:13;17.50;99.90
14529;DHT22;7351;51.194;4.098;2023-03-14T16:12:40;17.50;99.90